sensor_id;sensor_type;location;lat;lon;timestamp;P1;durP1;ratioP1;P2;durP2;ratioP2
82850;SDS011;72609;45.768;4.884;2023-11-19T00:00:27;17.38;;;6.80;;
82850;SDS011;72609;45.768;4.884;2023-11-19T00:02:53;10.63;;;5.40;;
82850;SDS011;72609;45.768;4.884;2023-11-19T00:05:19;11.65;;;5.50;;
82850;SDS011;72609;45.768;4.884;2023-11-19T00:07:45;11.73;;;5.43;;
82850;SDS011;72609;45.768;4.884;2023-11-19T00:10:12;9.77;;;5.43;;
82850;SDS011;72609;45.768;4.884;2023-11-19T00:12:39;10.73;;;4.78;;
82850;SDS011;72609;45.768;4.884;2023-11-19T00:15:06;13.50;;;6.35;;
82850;SDS011;72609;45.768;4.884;2023-11-19T00:17:36;10.60;;;5.45;;
82850;SDS011;72609;45.768;4.884;2023-11-19T00:22:30;8.65;;;5.15;;
82850;SDS011;72609;45.768;4.884;2023-11-19T00:24:57;9.65;;;5.60;;
82850;SDS011;72609;45.768;4.884;2023-11-19T00:27:24;9.73;;;5.25;;
82850;SDS011;72609;45.768;4.884;2023-11-19T00:29:51;9.30;;;4.68;;
82850;SDS011;72609;45.768;4.884;2023-11-19T00:32:17;10.82;;;6.00;;
82850;SDS011;72609;45.768;4.884;2023-11-19T00:34:44;10.40;;;5.90;;
82850;SDS011;72609;45.768;4.884;2023-11-19T00:39:36;11.27;;;5.55;;
82850;SDS011;72609;45.768;4.884;2023-11-19T00:42:05;10.68;;;5.55;;
82850;SDS011;72609;45.768;4.884;2023-11-19T00:44:31;11.68;;;6.20;;
82850;SDS011;72609;45.768;4.884;2023-11-19T00:46:57;14.35;;;6.80;;
82850;SDS011;72609;45.768;4.884;2023-11-19T00:49:24;12.70;;;5.43;;
82850;SDS011;72609;45.768;4.884;2023-11-19T00:51:50;14.32;;;6.13;;
82850;SDS011;72609;45.768;4.884;2023-11-19T00:54:16;8.60;;;5.03;;
82850;SDS011;72609;45.768;4.884;2023-11-19T00:56:42;15.63;;;5.80;;
82850;SDS011;72609;45.768;4.884;2023-11-19T00:59:09;13.15;;;5.32;;
82850;SDS011;72609;45.768;4.884;2023-11-19T01:01:35;9.55;;;5.07;;
82850;SDS011;72609;45.768;4.884;2023-11-19T01:04:01;9.65;;;4.95;;
82850;SDS011;72609;45.768;4.884;2023-11-19T01:06:31;10.32;;;5.80;;
82850;SDS011;72609;45.768;4.884;2023-11-19T01:08:57;9.77;;;5.47;;
82850;SDS011;72609;45.768;4.884;2023-11-19T01:11:24;10.80;;;5.00;;
82850;SDS011;72609;45.768;4.884;2023-11-19T01:13:50;11.13;;;5.55;;
82850;SDS011;72609;45.768;4.884;2023-11-19T01:16:17;11.50;;;5.68;;
82850;SDS011;72609;45.768;4.884;2023-11-19T01:18:43;9.75;;;4.50;;
82850;SDS011;72609;45.768;4.884;2023-11-19T01:21:09;14.25;;;6.53;;
82850;SDS011;72609;45.768;4.884;2023-11-19T01:23:35;9.18;;;4.90;;
82850;SDS011;72609;45.768;4.884;2023-11-19T01:26:02;11.65;;;5.68;;
82850;SDS011;72609;45.768;4.884;2023-11-19T01:28:30;10.05;;;4.82;;
82850;SDS011;72609;45.768;4.884;2023-11-19T01:30:56;8.88;;;5.28;;
82850;SDS011;72609;45.768;4.884;2023-11-19T01:33:22;18.13;;;6.53;;
82850;SDS011;72609;45.768;4.884;2023-11-19T01:35:48;9.70;;;5.00;;
82850;SDS011;72609;45.768;4.884;2023-11-19T01:38:14;13.25;;;4.88;;
82850;SDS011;72609;45.768;4.884;2023-11-19T01:40:40;9.80;;;5.53;;
82850;SDS011;72609;45.768;4.884;2023-11-19T01:43:06;10.60;;;5.10;;
82850;SDS011;72609;45.768;4.884;2023-11-19T01:45:32;8.07;;;4.82;;
82850;SDS011;72609;45.768;4.884;2023-11-19T01:48:00;9.93;;;5.07;;
82850;SDS011;72609;45.768;4.884;2023-11-19T01:50:28;10.77;;;5.20;;
82850;SDS011;72609;45.768;4.884;2023-11-19T01:52:55;9.93;;;5.80;;
82850;SDS011;72609;45.768;4.884;2023-11-19T01:55:22;9.45;;;4.47;;
82850;SDS011;72609;45.768;4.884;2023-11-19T01:57:49;7.80;;;4.32;;
82850;SDS011;72609;45.768;4.884;2023-11-19T02:00:16;9.15;;;4.43;;
82850;SDS011;72609;45.768;4.884;2023-11-19T02:02:42;14.45;;;4.32;;
82850;SDS011;72609;45.768;4.884;2023-11-19T02:05:12;9.80;;;4.80;;
82850;SDS011;72609;45.768;4.884;2023-11-19T02:07:39;7.70;;;4.38;;
82850;SDS011;72609;45.768;4.884;2023-11-19T02:10:05;9.48;;;4.63;;
82850;SDS011;72609;45.768;4.884;2023-11-19T02:12:37;9.57;;;4.05;;
82850;SDS011;72609;45.768;4.884;2023-11-19T02:15:03;7.10;;;3.85;;
82850;SDS011;72609;45.768;4.884;2023-11-19T02:17:30;11.77;;;4.50;;
82850;SDS011;72609;45.768;4.884;2023-11-19T02:19:57;9.02;;;5.32;;
82850;SDS011;72609;45.768;4.884;2023-11-19T02:22:23;9.60;;;4.35;;
82850;SDS011;72609;45.768;4.884;2023-11-19T02:27:16;7.60;;;4.18;;
82850;SDS011;72609;45.768;4.884;2023-11-19T02:29:45;7.40;;;4.10;;
82850;SDS011;72609;45.768;4.884;2023-11-19T02:32:12;10.32;;;4.65;;
82850;SDS011;72609;45.768;4.884;2023-11-19T02:34:39;7.68;;;4.07;;
82850;SDS011;72609;45.768;4.884;2023-11-19T02:37:05;8.20;;;4.82;;
82850;SDS011;72609;45.768;4.884;2023-11-19T02:39:31;7.72;;;3.67;;
82850;SDS011;72609;45.768;4.884;2023-11-19T02:41:57;8.68;;;4.72;;
82850;SDS011;72609;45.768;4.884;2023-11-19T02:44:23;7.90;;;4.25;;
82850;SDS011;72609;45.768;4.884;2023-11-19T02:46:49;7.20;;;4.22;;
82850;SDS011;72609;45.768;4.884;2023-11-19T02:49:15;7.85;;;4.45;;
82850;SDS011;72609;45.768;4.884;2023-11-19T02:51:41;8.73;;;4.68;;
82850;SDS011;72609;45.768;4.884;2023-11-19T02:54:07;9.38;;;4.72;;
82850;SDS011;72609;45.768;4.884;2023-11-19T02:56:33;8.90;;;4.35;;
82850;SDS011;72609;45.768;4.884;2023-11-19T02:59:02;8.25;;;4.88;;
82850;SDS011;72609;45.768;4.884;2023-11-19T03:01:40;10.25;;;5.70;;
82850;SDS011;72609;45.768;4.884;2023-11-19T03:04:08;8.82;;;3.92;;
82850;SDS011;72609;45.768;4.884;2023-11-19T03:06:37;9.27;;;4.95;;
82850;SDS011;72609;45.768;4.884;2023-11-19T03:09:03;7.15;;;3.88;;
82850;SDS011;72609;45.768;4.884;2023-11-19T03:11:35;9.85;;;4.63;;
82850;SDS011;72609;45.768;4.884;2023-11-19T03:14:01;6.55;;;3.90;;
82850;SDS011;72609;45.768;4.884;2023-11-19T03:16:28;10.30;;;4.63;;
82850;SDS011;72609;45.768;4.884;2023-11-19T03:18:54;8.35;;;4.40;;
82850;SDS011;72609;45.768;4.884;2023-11-19T03:21:30;7.97;;;3.97;;
82850;SDS011;72609;45.768;4.884;2023-11-19T03:23:57;8.60;;;4.28;;
82850;SDS011;72609;45.768;4.884;2023-11-19T03:26:25;8.13;;;4.63;;
82850;SDS011;72609;45.768;4.884;2023-11-19T03:28:52;8.38;;;4.40;;
82850;SDS011;72609;45.768;4.884;2023-11-19T03:31:18;8.95;;;4.38;;
82850;SDS011;72609;45.768;4.884;2023-11-19T03:33:44;7.97;;;4.32;;
82850;SDS011;72609;45.768;4.884;2023-11-19T03:36:10;12.18;;;5.03;;
82850;SDS011;72609;45.768;4.884;2023-11-19T03:38:37;10.65;;;3.80;;
82850;SDS011;72609;45.768;4.884;2023-11-19T03:44:07;8.43;;;4.45;;
82850;SDS011;72609;45.768;4.884;2023-11-19T03:46:33;9.50;;;3.78;;
82850;SDS011;72609;45.768;4.884;2023-11-19T04:03:35;7.00;;;3.78;;
82850;SDS011;72609;45.768;4.884;2023-11-19T04:06:01;7.82;;;4.07;;
82850;SDS011;72609;45.768;4.884;2023-11-19T04:08:27;8.30;;;4.20;;
82850;SDS011;72609;45.768;4.884;2023-11-19T04:10:54;9.95;;;3.83;;
82850;SDS011;72609;45.768;4.884;2023-11-19T04:13:20;7.28;;;3.95;;
82850;SDS011;72609;45.768;4.884;2023-11-19T04:15:46;10.73;;;5.32;;
82850;SDS011;72609;45.768;4.884;2023-11-19T04:18:12;7.85;;;4.28;;
82850;SDS011;72609;45.768;4.884;2023-11-19T04:20:38;13.10;;;6.50;;
82850;SDS011;72609;45.768;4.884;2023-11-19T04:23:04;7.15;;;4.20;;
82850;SDS011;72609;45.768;4.884;2023-11-19T04:25:30;11.02;;;5.57;;
82850;SDS011;72609;45.768;4.884;2023-11-19T04:27:56;9.55;;;4.60;;
82850;SDS011;72609;45.768;4.884;2023-11-19T04:30:22;6.72;;;4.28;;
82850;SDS011;72609;45.768;4.884;2023-11-19T04:32:48;7.43;;;4.18;;
82850;SDS011;72609;45.768;4.884;2023-11-19T04:35:14;7.45;;;4.55;;
82850;SDS011;72609;45.768;4.884;2023-11-19T04:37:41;7.85;;;4.25;;
82850;SDS011;72609;45.768;4.884;2023-11-19T04:40:07;9.45;;;4.65;;
82850;SDS011;72609;45.768;4.884;2023-11-19T04:42:34;7.95;;;4.47;;
82850;SDS011;72609;45.768;4.884;2023-11-19T04:45:00;10.85;;;6.15;;
82850;SDS011;72609;45.768;4.884;2023-11-19T04:47:26;12.32;;;5.80;;
82850;SDS011;72609;45.768;4.884;2023-11-19T04:49:52;11.82;;;5.18;;
82850;SDS011;72609;45.768;4.884;2023-11-19T04:52:18;9.38;;;4.80;;
82850;SDS011;72609;45.768;4.884;2023-11-19T04:54:45;8.32;;;4.38;;
82850;SDS011;72609;45.768;4.884;2023-11-19T04:59:37;8.07;;;4.00;;
82850;SDS011;72609;45.768;4.884;2023-11-19T05:02:03;8.50;;;4.05;;
82850;SDS011;72609;45.768;4.884;2023-11-19T05:04:30;10.30;;;4.75;;
82850;SDS011;72609;45.768;4.884;2023-11-19T05:06:56;10.18;;;4.90;;
82850;SDS011;72609;45.768;4.884;2023-11-19T05:09:22;9.93;;;4.63;;
82850;SDS011;72609;45.768;4.884;2023-11-19T05:11:48;11.80;;;4.22;;
82850;SDS011;72609;45.768;4.884;2023-11-19T05:14:14;9.93;;;4.53;;
82850;SDS011;72609;45.768;4.884;2023-11-19T05:16:41;9.88;;;4.57;;
82850;SDS011;72609;45.768;4.884;2023-11-19T05:21:34;9.90;;;4.45;;
82850;SDS011;72609;45.768;4.884;2023-11-19T05:24:00;9.52;;;4.15;;
82850;SDS011;72609;45.768;4.884;2023-11-19T05:26:29;10.02;;;4.20;;
82850;SDS011;72609;45.768;4.884;2023-11-19T05:28:55;11.50;;;4.50;;
82850;SDS011;72609;45.768;4.884;2023-11-19T05:31:21;7.75;;;4.28;;
82850;SDS011;72609;45.768;4.884;2023-11-19T05:33:47;9.18;;;4.53;;
82850;SDS011;72609;45.768;4.884;2023-11-19T05:36:13;7.90;;;4.13;;
82850;SDS011;72609;45.768;4.884;2023-11-19T05:38:39;6.45;;;3.75;;
82850;SDS011;72609;45.768;4.884;2023-11-19T05:41:06;8.98;;;4.40;;
82850;SDS011;72609;45.768;4.884;2023-11-19T05:43:32;6.15;;;3.97;;
82850;SDS011;72609;45.768;4.884;2023-11-19T05:45:58;8.10;;;4.97;;
82850;SDS011;72609;45.768;4.884;2023-11-19T05:48:25;8.07;;;5.05;;
82850;SDS011;72609;45.768;4.884;2023-11-19T05:50:51;6.55;;;3.97;;
82850;SDS011;72609;45.768;4.884;2023-11-19T05:53:18;10.02;;;4.85;;
82850;SDS011;72609;45.768;4.884;2023-11-19T05:55:44;7.38;;;4.63;;
82850;SDS011;72609;45.768;4.884;2023-11-19T05:58:25;7.07;;;3.70;;
82850;SDS011;72609;45.768;4.884;2023-11-19T06:00:53;9.45;;;3.58;;
82850;SDS011;72609;45.768;4.884;2023-11-19T06:03:20;8.88;;;5.05;;
82850;SDS011;72609;45.768;4.884;2023-11-19T06:05:46;8.15;;;4.10;;
82850;SDS011;72609;45.768;4.884;2023-11-19T06:08:13;7.38;;;4.75;;
82850;SDS011;72609;45.768;4.884;2023-11-19T06:10:40;10.15;;;4.28;;
82850;SDS011;72609;45.768;4.884;2023-11-19T06:16:10;9.07;;;3.75;;
82850;SDS011;72609;45.768;4.884;2023-11-19T06:18:37;10.98;;;4.10;;
82850;SDS011;72609;45.768;4.884;2023-11-19T06:21:03;8.02;;;4.00;;
82850;SDS011;72609;45.768;4.884;2023-11-19T06:23:29;9.57;;;4.03;;
82850;SDS011;72609;45.768;4.884;2023-11-19T06:25:55;9.05;;;5.13;;
82850;SDS011;72609;45.768;4.884;2023-11-19T06:28:21;8.07;;;4.10;;
82850;SDS011;72609;45.768;4.884;2023-11-19T06:30:47;7.15;;;4.00;;
82850;SDS011;72609;45.768;4.884;2023-11-19T06:33:13;6.68;;;4.03;;
82850;SDS011;72609;45.768;4.884;2023-11-19T06:38:43;7.95;;;3.85;;
82850;SDS011;72609;45.768;4.884;2023-11-19T06:41:09;6.97;;;5.00;;
82850;SDS011;72609;45.768;4.884;2023-11-19T06:43:35;7.55;;;4.20;;
82850;SDS011;72609;45.768;4.884;2023-11-19T06:46:01;7.60;;;4.05;;
82850;SDS011;72609;45.768;4.884;2023-11-19T06:48:27;7.13;;;3.83;;
82850;SDS011;72609;45.768;4.884;2023-11-19T06:50:53;7.97;;;3.72;;
82850;SDS011;72609;45.768;4.884;2023-11-19T06:53:19;6.55;;;3.70;;
82850;SDS011;72609;45.768;4.884;2023-11-19T06:55:45;8.40;;;3.63;;
82850;SDS011;72609;45.768;4.884;2023-11-19T06:58:11;6.60;;;3.40;;
82850;SDS011;72609;45.768;4.884;2023-11-19T07:00:37;9.27;;;3.95;;
82850;SDS011;72609;45.768;4.884;2023-11-19T07:03:03;6.53;;;3.35;;
82850;SDS011;72609;45.768;4.884;2023-11-19T07:05:30;6.85;;;3.60;;
82850;SDS011;72609;45.768;4.884;2023-11-19T07:07:56;8.65;;;4.05;;
82850;SDS011;72609;45.768;4.884;2023-11-19T07:10:22;8.15;;;3.80;;
82850;SDS011;72609;45.768;4.884;2023-11-19T07:12:48;6.25;;;3.90;;
82850;SDS011;72609;45.768;4.884;2023-11-19T07:17:42;10.00;;;4.22;;
82850;SDS011;72609;45.768;4.884;2023-11-19T07:20:10;11.13;;;4.60;;
82850;SDS011;72609;45.768;4.884;2023-11-19T07:22:41;8.70;;;3.67;;
82850;SDS011;72609;45.768;4.884;2023-11-19T07:25:08;8.65;;;4.05;;
82850;SDS011;72609;45.768;4.884;2023-11-19T07:27:34;6.32;;;3.47;;
82850;SDS011;72609;45.768;4.884;2023-11-19T07:30:00;7.90;;;4.18;;
82850;SDS011;72609;45.768;4.884;2023-11-19T07:32:26;6.65;;;4.05;;
82850;SDS011;72609;45.768;4.884;2023-11-19T07:34:52;11.70;;;4.40;;
82850;SDS011;72609;45.768;4.884;2023-11-19T07:37:18;6.80;;;4.18;;
82850;SDS011;72609;45.768;4.884;2023-11-19T07:39:44;7.90;;;3.65;;
82850;SDS011;72609;45.768;4.884;2023-11-19T07:42:10;6.68;;;3.58;;
82850;SDS011;72609;45.768;4.884;2023-11-19T07:44:36;8.40;;;3.88;;
82850;SDS011;72609;45.768;4.884;2023-11-19T07:47:02;7.65;;;3.40;;
82850;SDS011;72609;45.768;4.884;2023-11-19T07:49:28;8.15;;;3.78;;
82850;SDS011;72609;45.768;4.884;2023-11-19T07:51:55;8.02;;;4.07;;
82850;SDS011;72609;45.768;4.884;2023-11-19T07:54:21;6.60;;;3.55;;
82850;SDS011;72609;45.768;4.884;2023-11-19T07:56:47;6.25;;;3.47;;
82850;SDS011;72609;45.768;4.884;2023-11-19T07:59:15;6.63;;;3.80;;
82850;SDS011;72609;45.768;4.884;2023-11-19T08:01:41;7.38;;;3.40;;
82850;SDS011;72609;45.768;4.884;2023-11-19T08:04:07;8.00;;;3.63;;
82850;SDS011;72609;45.768;4.884;2023-11-19T08:06:33;6.75;;;3.47;;
82850;SDS011;72609;45.768;4.884;2023-11-19T08:08:59;6.30;;;3.50;;
82850;SDS011;72609;45.768;4.884;2023-11-19T08:11:26;6.65;;;3.42;;
82850;SDS011;72609;45.768;4.884;2023-11-19T08:13:52;7.25;;;3.70;;
82850;SDS011;72609;45.768;4.884;2023-11-19T08:16:18;7.85;;;4.03;;
82850;SDS011;72609;45.768;4.884;2023-11-19T08:18:44;7.65;;;4.10;;
82850;SDS011;72609;45.768;4.884;2023-11-19T08:21:10;7.10;;;3.53;;
82850;SDS011;72609;45.768;4.884;2023-11-19T08:23:36;9.52;;;3.72;;
82850;SDS011;72609;45.768;4.884;2023-11-19T08:26:03;10.57;;;4.15;;
82850;SDS011;72609;45.768;4.884;2023-11-19T08:28:29;12.27;;;3.80;;
82850;SDS011;72609;45.768;4.884;2023-11-19T08:33:22;8.07;;;4.65;;
82850;SDS011;72609;45.768;4.884;2023-11-19T08:35:48;6.40;;;3.70;;
82850;SDS011;72609;45.768;4.884;2023-11-19T08:38:14;6.57;;;3.55;;
82850;SDS011;72609;45.768;4.884;2023-11-19T08:40:40;6.78;;;3.40;;
82850;SDS011;72609;45.768;4.884;2023-11-19T08:43:06;7.25;;;3.67;;
82850;SDS011;72609;45.768;4.884;2023-11-19T08:45:32;5.90;;;3.47;;
82850;SDS011;72609;45.768;4.884;2023-11-19T08:47:58;5.88;;;3.28;;
82850;SDS011;72609;45.768;4.884;2023-11-19T08:50:24;6.88;;;3.95;;
82850;SDS011;72609;45.768;4.884;2023-11-19T08:52:50;10.73;;;3.00;;
82850;SDS011;72609;45.768;4.884;2023-11-19T08:55:16;11.23;;;3.80;;
82850;SDS011;72609;45.768;4.884;2023-11-19T08:57:42;6.20;;;3.63;;
82850;SDS011;72609;45.768;4.884;2023-11-19T09:00:08;6.18;;;3.17;;
82850;SDS011;72609;45.768;4.884;2023-11-19T09:02:37;5.55;;;3.40;;
82850;SDS011;72609;45.768;4.884;2023-11-19T09:05:04;6.57;;;3.38;;
82850;SDS011;72609;45.768;4.884;2023-11-19T09:07:30;6.07;;;3.17;;
82850;SDS011;72609;45.768;4.884;2023-11-19T09:09:57;8.23;;;3.15;;
82850;SDS011;72609;45.768;4.884;2023-11-19T09:12:23;11.00;;;3.30;;
82850;SDS011;72609;45.768;4.884;2023-11-19T09:14:49;7.55;;;3.28;;
82850;SDS011;72609;45.768;4.884;2023-11-19T09:17:15;4.97;;;2.75;;
82850;SDS011;72609;45.768;4.884;2023-11-19T09:19:42;7.25;;;3.65;;
82850;SDS011;72609;45.768;4.884;2023-11-19T09:22:08;7.40;;;3.67;;
82850;SDS011;72609;45.768;4.884;2023-11-19T09:24:34;7.40;;;4.38;;
82850;SDS011;72609;45.768;4.884;2023-11-19T09:27:00;9.63;;;4.18;;
82850;SDS011;72609;45.768;4.884;2023-11-19T09:29:26;7.38;;;3.85;;
82850;SDS011;72609;45.768;4.884;2023-11-19T09:31:52;8.93;;;4.18;;
82850;SDS011;72609;45.768;4.884;2023-11-19T09:34:18;6.78;;;3.15;;
82850;SDS011;72609;45.768;4.884;2023-11-19T09:36:45;8.30;;;3.72;;
82850;SDS011;72609;45.768;4.884;2023-11-19T09:39:11;7.70;;;3.55;;
82850;SDS011;72609;45.768;4.884;2023-11-19T09:41:42;5.78;;;3.30;;
82850;SDS011;72609;45.768;4.884;2023-11-19T09:44:09;5.53;;;3.08;;
82850;SDS011;72609;45.768;4.884;2023-11-19T09:46:37;6.25;;;3.55;;
82850;SDS011;72609;45.768;4.884;2023-11-19T09:51:29;7.50;;;4.93;;
82850;SDS011;72609;45.768;4.884;2023-11-19T09:53:55;7.22;;;4.00;;
82850;SDS011;72609;45.768;4.884;2023-11-19T09:56:21;6.43;;;3.60;;
82850;SDS011;72609;45.768;4.884;2023-11-19T09:58:48;7.15;;;4.15;;
82850;SDS011;72609;45.768;4.884;2023-11-19T10:01:14;6.88;;;3.28;;
82850;SDS011;72609;45.768;4.884;2023-11-19T10:03:40;8.45;;;3.58;;
82850;SDS011;72609;45.768;4.884;2023-11-19T10:06:08;9.15;;;3.28;;
82850;SDS011;72609;45.768;4.884;2023-11-19T10:08:38;5.53;;;3.30;;
82850;SDS011;72609;45.768;4.884;2023-11-19T10:11:05;5.10;;;3.00;;
82850;SDS011;72609;45.768;4.884;2023-11-19T10:13:31;5.53;;;3.45;;
82850;SDS011;72609;45.768;4.884;2023-11-19T10:16:09;7.30;;;3.08;;
82850;SDS011;72609;45.768;4.884;2023-11-19T10:18:36;5.40;;;2.92;;
82850;SDS011;72609;45.768;4.884;2023-11-19T10:23:29;5.95;;;3.50;;
82850;SDS011;72609;45.768;4.884;2023-11-19T10:26:01;8.10;;;3.30;;
82850;SDS011;72609;45.768;4.884;2023-11-19T10:28:37;5.85;;;3.22;;
82850;SDS011;72609;45.768;4.884;2023-11-19T10:31:04;6.35;;;3.35;;
82850;SDS011;72609;45.768;4.884;2023-11-19T10:33:30;5.07;;;3.20;;
82850;SDS011;72609;45.768;4.884;2023-11-19T10:35:57;9.93;;;5.45;;
82850;SDS011;72609;45.768;4.884;2023-11-19T10:38:24;8.57;;;4.30;;
82850;SDS011;72609;45.768;4.884;2023-11-19T10:40:50;7.57;;;3.42;;
82850;SDS011;72609;45.768;4.884;2023-11-19T10:43:16;7.72;;;3.03;;
82850;SDS011;72609;45.768;4.884;2023-11-19T10:45:43;6.25;;;2.97;;
82850;SDS011;72609;45.768;4.884;2023-11-19T10:48:09;9.27;;;3.60;;
82850;SDS011;72609;45.768;4.884;2023-11-19T10:50:35;7.60;;;3.38;;
82850;SDS011;72609;45.768;4.884;2023-11-19T10:53:02;5.70;;;3.47;;
82850;SDS011;72609;45.768;4.884;2023-11-19T10:55:29;8.63;;;3.38;;
82850;SDS011;72609;45.768;4.884;2023-11-19T10:57:59;5.72;;;2.50;;
82850;SDS011;72609;45.768;4.884;2023-11-19T11:00:26;7.25;;;3.28;;
82850;SDS011;72609;45.768;4.884;2023-11-19T11:02:54;5.93;;;2.47;;
82850;SDS011;72609;45.768;4.884;2023-11-19T11:05:22;4.63;;;2.97;;
82850;SDS011;72609;45.768;4.884;2023-11-19T11:07:48;5.72;;;3.25;;
82850;SDS011;72609;45.768;4.884;2023-11-19T11:10:16;8.02;;;2.47;;
82850;SDS011;72609;45.768;4.884;2023-11-19T11:12:42;10.13;;;2.72;;
82850;SDS011;72609;45.768;4.884;2023-11-19T11:15:13;6.55;;;3.17;;
82850;SDS011;72609;45.768;4.884;2023-11-19T11:17:40;5.55;;;2.70;;
82850;SDS011;72609;45.768;4.884;2023-11-19T11:20:08;5.43;;;2.45;;
82850;SDS011;72609;45.768;4.884;2023-11-19T11:22:39;6.68;;;2.75;;
82850;SDS011;72609;45.768;4.884;2023-11-19T11:25:18;5.15;;;2.72;;
82850;SDS011;72609;45.768;4.884;2023-11-19T11:34:15;6.10;;;3.05;;
82850;SDS011;72609;45.768;4.884;2023-11-19T11:39:47;5.82;;;3.03;;
82850;SDS011;72609;45.768;4.884;2023-11-19T11:50:24;4.45;;;2.60;;
82850;SDS011;72609;45.768;4.884;2023-11-19T11:55:23;4.65;;;2.80;;
82850;SDS011;72609;45.768;4.884;2023-11-19T11:57:55;7.28;;;3.58;;
82850;SDS011;72609;45.768;4.884;2023-11-19T12:00:22;5.80;;;3.45;;
82850;SDS011;72609;45.768;4.884;2023-11-19T12:03:04;5.75;;;2.58;;
82850;SDS011;72609;45.768;4.884;2023-11-19T12:05:32;5.10;;;3.25;;
82850;SDS011;72609;45.768;4.884;2023-11-19T12:08:04;5.30;;;3.05;;
82850;SDS011;72609;45.768;4.884;2023-11-19T12:10:32;5.65;;;3.20;;
82850;SDS011;72609;45.768;4.884;2023-11-19T12:13:10;12.15;;;3.38;;
82850;SDS011;72609;45.768;4.884;2023-11-19T12:18:21;4.60;;;2.80;;
82850;SDS011;72609;45.768;4.884;2023-11-19T12:20:49;6.43;;;3.00;;
82850;SDS011;72609;45.768;4.884;2023-11-19T12:23:14;8.35;;;2.65;;
82850;SDS011;72609;45.768;4.884;2023-11-19T12:25:40;9.02;;;3.20;;
82850;SDS011;72609;45.768;4.884;2023-11-19T12:28:11;4.80;;;2.67;;
82850;SDS011;72609;45.768;4.884;2023-11-19T12:30:37;4.03;;;1.95;;
82850;SDS011;72609;45.768;4.884;2023-11-19T12:33:07;6.85;;;2.47;;
82850;SDS011;72609;45.768;4.884;2023-11-19T12:35:38;4.70;;;2.20;;
82850;SDS011;72609;45.768;4.884;2023-11-19T12:38:04;5.72;;;2.40;;
82850;SDS011;72609;45.768;4.884;2023-11-19T12:40:30;5.03;;;1.90;;
82850;SDS011;72609;45.768;4.884;2023-11-19T12:42:55;5.15;;;2.20;;
82850;SDS011;72609;45.768;4.884;2023-11-19T12:45:22;4.88;;;2.53;;
82850;SDS011;72609;45.768;4.884;2023-11-19T12:47:48;5.97;;;2.47;;
82850;SDS011;72609;45.768;4.884;2023-11-19T12:50:17;7.22;;;2.80;;
82850;SDS011;72609;45.768;4.884;2023-11-19T12:52:54;7.60;;;2.53;;
82850;SDS011;72609;45.768;4.884;2023-11-19T12:55:25;6.25;;;2.63;;
82850;SDS011;72609;45.768;4.884;2023-11-19T13:00:21;6.40;;;2.95;;
82850;SDS011;72609;45.768;4.884;2023-11-19T13:02:55;7.20;;;2.72;;
82850;SDS011;72609;45.768;4.884;2023-11-19T13:05:31;8.93;;;2.80;;
82850;SDS011;72609;45.768;4.884;2023-11-19T13:08:05;8.82;;;3.00;;
82850;SDS011;72609;45.768;4.884;2023-11-19T13:10:32;8.30;;;2.92;;
82850;SDS011;72609;45.768;4.884;2023-11-19T13:13:14;6.22;;;2.63;;
82850;SDS011;72609;45.768;4.884;2023-11-19T13:15:40;8.63;;;2.60;;
82850;SDS011;72609;45.768;4.884;2023-11-19T13:18:05;5.63;;;2.78;;
82850;SDS011;72609;45.768;4.884;2023-11-19T13:20:32;6.45;;;3.53;;
82850;SDS011;72609;45.768;4.884;2023-11-19T13:22:58;7.20;;;2.83;;
82850;SDS011;72609;45.768;4.884;2023-11-19T13:25:26;6.70;;;2.80;;
82850;SDS011;72609;45.768;4.884;2023-11-19T13:27:53;5.45;;;2.80;;
82850;SDS011;72609;45.768;4.884;2023-11-19T13:30:19;4.15;;;2.63;;
82850;SDS011;72609;45.768;4.884;2023-11-19T13:32:45;5.88;;;2.70;;
82850;SDS011;72609;45.768;4.884;2023-11-19T13:35:14;7.10;;;2.75;;
82850;SDS011;72609;45.768;4.884;2023-11-19T13:37:40;4.93;;;2.50;;
82850;SDS011;72609;45.768;4.884;2023-11-19T13:40:06;8.20;;;2.75;;
82850;SDS011;72609;45.768;4.884;2023-11-19T13:42:34;7.05;;;3.30;;
82850;SDS011;72609;45.768;4.884;2023-11-19T13:45:15;4.97;;;2.90;;
82850;SDS011;72609;45.768;4.884;2023-11-19T13:47:44;4.53;;;2.63;;
82850;SDS011;72609;45.768;4.884;2023-11-19T13:50:11;6.70;;;2.75;;
82850;SDS011;72609;45.768;4.884;2023-11-19T13:52:38;11.68;;;3.25;;
82850;SDS011;72609;45.768;4.884;2023-11-19T13:55:05;8.95;;;2.40;;
82850;SDS011;72609;45.768;4.884;2023-11-19T13:57:33;4.80;;;2.60;;
82850;SDS011;72609;45.768;4.884;2023-11-19T13:59:59;9.45;;;3.03;;
82850;SDS011;72609;45.768;4.884;2023-11-19T14:02:25;5.90;;;2.30;;
82850;SDS011;72609;45.768;4.884;2023-11-19T14:04:51;4.45;;;2.50;;
82850;SDS011;72609;45.768;4.884;2023-11-19T14:07:16;6.88;;;3.03;;
82850;SDS011;72609;45.768;4.884;2023-11-19T14:09:43;9.32;;;3.38;;
82850;SDS011;72609;45.768;4.884;2023-11-19T14:12:08;7.03;;;2.97;;
82850;SDS011;72609;45.768;4.884;2023-11-19T14:14:34;6.93;;;3.10;;
82850;SDS011;72609;45.768;4.884;2023-11-19T14:17:01;4.40;;;3.00;;
82850;SDS011;72609;45.768;4.884;2023-11-19T14:19:28;7.32;;;3.05;;
82850;SDS011;72609;45.768;4.884;2023-11-19T14:21:53;8.40;;;3.47;;
82850;SDS011;72609;45.768;4.884;2023-11-19T14:24:19;5.68;;;2.70;;
82850;SDS011;72609;45.768;4.884;2023-11-19T14:26:45;7.25;;;2.85;;
82850;SDS011;72609;45.768;4.884;2023-11-19T14:29:12;4.93;;;2.97;;
82850;SDS011;72609;45.768;4.884;2023-11-19T14:31:38;6.38;;;3.30;;
82850;SDS011;72609;45.768;4.884;2023-11-19T14:34:05;7.43;;;3.63;;
82850;SDS011;72609;45.768;4.884;2023-11-19T14:36:30;6.47;;;3.55;;
82850;SDS011;72609;45.768;4.884;2023-11-19T14:38:56;7.10;;;3.58;;
82850;SDS011;72609;45.768;4.884;2023-11-19T14:41:23;7.65;;;3.50;;
82850;SDS011;72609;45.768;4.884;2023-11-19T14:43:49;4.88;;;3.00;;
82850;SDS011;72609;45.768;4.884;2023-11-19T14:46:15;11.43;;;4.10;;
82850;SDS011;72609;45.768;4.884;2023-11-19T14:48:41;8.18;;;3.30;;
82850;SDS011;72609;45.768;4.884;2023-11-19T14:51:07;7.07;;;3.20;;
82850;SDS011;72609;45.768;4.884;2023-11-19T14:53:33;9.52;;;3.72;;
82850;SDS011;72609;45.768;4.884;2023-11-19T14:55:59;8.15;;;3.25;;
82850;SDS011;72609;45.768;4.884;2023-11-19T14:58:25;6.10;;;3.13;;
82850;SDS011;72609;45.768;4.884;2023-11-19T15:00:51;5.43;;;3.10;;
82850;SDS011;72609;45.768;4.884;2023-11-19T15:03:17;9.02;;;4.20;;
82850;SDS011;72609;45.768;4.884;2023-11-19T15:08:10;8.27;;;4.10;;
82850;SDS011;72609;45.768;4.884;2023-11-19T15:10:36;7.97;;;4.05;;
82850;SDS011;72609;45.768;4.884;2023-11-19T15:13:02;5.53;;;3.25;;
82850;SDS011;72609;45.768;4.884;2023-11-19T15:15:29;9.55;;;4.47;;
82850;SDS011;72609;45.768;4.884;2023-11-19T15:17:54;7.10;;;3.95;;
82850;SDS011;72609;45.768;4.884;2023-11-19T15:20:20;7.75;;;4.60;;
82850;SDS011;72609;45.768;4.884;2023-11-19T15:22:46;8.45;;;3.88;;
82850;SDS011;72609;45.768;4.884;2023-11-19T15:25:12;7.47;;;3.88;;
82850;SDS011;72609;45.768;4.884;2023-11-19T15:27:38;9.75;;;4.35;;
82850;SDS011;72609;45.768;4.884;2023-11-19T15:30:04;7.43;;;3.83;;
82850;SDS011;72609;45.768;4.884;2023-11-19T15:32:30;10.40;;;3.97;;
82850;SDS011;72609;45.768;4.884;2023-11-19T15:34:57;11.55;;;3.83;;
82850;SDS011;72609;45.768;4.884;2023-11-19T15:37:23;10.43;;;4.40;;
82850;SDS011;72609;45.768;4.884;2023-11-19T15:39:49;9.75;;;4.68;;
82850;SDS011;72609;45.768;4.884;2023-11-19T15:42:16;11.15;;;4.25;;
82850;SDS011;72609;45.768;4.884;2023-11-19T15:44:42;9.10;;;4.50;;
82850;SDS011;72609;45.768;4.884;2023-11-19T15:47:08;8.13;;;5.45;;
82850;SDS011;72609;45.768;4.884;2023-11-19T15:49:34;12.30;;;4.50;;
82850;SDS011;72609;45.768;4.884;2023-11-19T15:52:01;8.57;;;4.40;;
82850;SDS011;72609;45.768;4.884;2023-11-19T15:54:27;10.85;;;5.35;;
82850;SDS011;72609;45.768;4.884;2023-11-19T15:56:53;9.73;;;4.47;;